sensor_id;sensor_type;location;lat;lon;timestamp;P1;durP1;ratioP1;P2;durP2;ratioP2
19675;SDS011;39539;52.202;9.876;2023-04-29T00:01:29;16.13;;;14.82;;
19675;SDS011;39539;52.202;9.876;2023-04-29T00:03:55;17.52;;;16.15;;
19675;SDS011;39539;52.202;9.876;2023-04-29T00:06:20;18.35;;;16.83;;
19675;SDS011;39539;52.202;9.876;2023-04-29T00:08:46;17.77;;;16.38;;
19675;SDS011;39539;52.202;9.876;2023-04-29T00:11:11;17.17;;;15.88;;
19675;SDS011;39539;52.202;9.876;2023-04-29T00:13:37;18.85;;;17.40;;
19675;SDS011;39539;52.202;9.876;2023-04-29T00:16:04;19.02;;;17.52;;
19675;SDS011;39539;52.202;9.876;2023-04-29T00:18:30;20.15;;;18.45;;
19675;SDS011;39539;52.202;9.876;2023-04-29T00:20:56;18.85;;;17.25;;
19675;SDS011;39539;52.202;9.876;2023-04-29T00:23:21;18.58;;;17.02;;
19675;SDS011;39539;52.202;9.876;2023-04-29T00:25:47;19.23;;;17.70;;
19675;SDS011;39539;52.202;9.876;2023-04-29T00:28:12;18.90;;;17.38;;
19675;SDS011;39539;52.202;9.876;2023-04-29T00:30:37;20.27;;;18.63;;
19675;SDS011;39539;52.202;9.876;2023-04-29T00:33:03;20.73;;;18.90;;
19675;SDS011;39539;52.202;9.876;2023-04-29T00:35:28;19.98;;;18.20;;
19675;SDS011;39539;52.202;9.876;2023-04-29T00:37:53;20.13;;;18.45;;
19675;SDS011;39539;52.202;9.876;2023-04-29T00:40:19;19.77;;;18.17;;
19675;SDS011;39539;52.202;9.876;2023-04-29T00:42:44;21.30;;;19.50;;
19675;SDS011;39539;52.202;9.876;2023-04-29T00:45:10;23.17;;;21.27;;
19675;SDS011;39539;52.202;9.876;2023-04-29T00:47:36;24.08;;;22.05;;
19675;SDS011;39539;52.202;9.876;2023-04-29T00:50:02;24.02;;;21.95;;
19675;SDS011;39539;52.202;9.876;2023-04-29T00:52:29;24.45;;;22.27;;
19675;SDS011;39539;52.202;9.876;2023-04-29T00:54:55;24.27;;;22.17;;
19675;SDS011;39539;52.202;9.876;2023-04-29T00:57:21;24.63;;;22.52;;
19675;SDS011;39539;52.202;9.876;2023-04-29T00:59:47;24.90;;;22.50;;
19675;SDS011;39539;52.202;9.876;2023-04-29T01:02:14;24.00;;;21.98;;
19675;SDS011;39539;52.202;9.876;2023-04-29T01:04:39;24.40;;;22.27;;
19675;SDS011;39539;52.202;9.876;2023-04-29T01:15:07;31.02;;;27.70;;
19675;SDS011;39539;52.202;9.876;2023-04-29T01:18:49;30.17;;;27.27;;
19675;SDS011;39539;52.202;9.876;2023-04-29T01:21:00;31.48;;;28.20;;
19675;SDS011;39539;52.202;9.876;2023-04-29T01:23:28;36.72;;;28.90;;
19675;SDS011;39539;52.202;9.876;2023-04-29T01:25:54;32.75;;;27.98;;
19675;SDS011;39539;52.202;9.876;2023-04-29T01:33:58;29.30;;;26.40;;
19675;SDS011;39539;52.202;9.876;2023-04-29T01:39:15;29.00;;;26.00;;
19675;SDS011;39539;52.202;9.876;2023-04-29T01:42:01;30.38;;;26.90;;
19675;SDS011;39539;52.202;9.876;2023-04-29T01:44:49;27.85;;;24.88;;
19675;SDS011;39539;52.202;9.876;2023-04-29T01:47:15;25.27;;;22.80;;
19675;SDS011;39539;52.202;9.876;2023-04-29T01:49:41;27.65;;;24.67;;
19675;SDS011;39539;52.202;9.876;2023-04-29T01:52:06;27.67;;;24.85;;
19675;SDS011;39539;52.202;9.876;2023-04-29T01:54:32;29.08;;;25.83;;
19675;SDS011;39539;52.202;9.876;2023-04-29T01:57:00;27.13;;;24.30;;
19675;SDS011;39539;52.202;9.876;2023-04-29T01:59:27;28.33;;;25.35;;
19675;SDS011;39539;52.202;9.876;2023-04-29T02:01:52;28.48;;;25.58;;
19675;SDS011;39539;52.202;9.876;2023-04-29T02:04:17;29.13;;;26.13;;
19675;SDS011;39539;52.202;9.876;2023-04-29T02:06:43;27.70;;;24.88;;
19675;SDS011;39539;52.202;9.876;2023-04-29T02:09:08;26.75;;;24.15;;
19675;SDS011;39539;52.202;9.876;2023-04-29T02:11:33;26.80;;;24.02;;
19675;SDS011;39539;52.202;9.876;2023-04-29T02:13:59;26.65;;;24.05;;
19675;SDS011;39539;52.202;9.876;2023-04-29T02:16:24;26.83;;;24.13;;
19675;SDS011;39539;52.202;9.876;2023-04-29T02:18:50;26.65;;;23.95;;
19675;SDS011;39539;52.202;9.876;2023-04-29T02:21:15;28.93;;;26.03;;
19675;SDS011;39539;52.202;9.876;2023-04-29T02:23:40;27.08;;;24.30;;
19675;SDS011;39539;52.202;9.876;2023-04-29T02:26:06;26.08;;;23.35;;
19675;SDS011;39539;52.202;9.876;2023-04-29T02:28:33;27.42;;;24.58;;
19675;SDS011;39539;52.202;9.876;2023-04-29T02:30:59;26.25;;;23.65;;
19675;SDS011;39539;52.202;9.876;2023-04-29T02:33:24;26.45;;;23.85;;
19675;SDS011;39539;52.202;9.876;2023-04-29T02:35:49;25.08;;;22.67;;
19675;SDS011;39539;52.202;9.876;2023-04-29T02:38:15;26.10;;;23.42;;
19675;SDS011;39539;52.202;9.876;2023-04-29T02:40:41;24.17;;;21.85;;
19675;SDS011;39539;52.202;9.876;2023-04-29T02:43:07;23.92;;;21.77;;
19675;SDS011;39539;52.202;9.876;2023-04-29T02:45:33;23.27;;;21.15;;
19675;SDS011;39539;52.202;9.876;2023-04-29T02:47:59;22.63;;;20.58;;
19675;SDS011;39539;52.202;9.876;2023-04-29T02:50:24;22.35;;;20.20;;
19675;SDS011;39539;52.202;9.876;2023-04-29T02:52:50;23.15;;;20.95;;
19675;SDS011;39539;52.202;9.876;2023-04-29T02:55:15;22.50;;;20.33;;
19675;SDS011;39539;52.202;9.876;2023-04-29T02:57:42;21.92;;;19.95;;
19675;SDS011;39539;52.202;9.876;2023-04-29T03:00:08;21.20;;;19.30;;
19675;SDS011;39539;52.202;9.876;2023-04-29T03:02:34;19.48;;;17.67;;
19675;SDS011;39539;52.202;9.876;2023-04-29T03:04:59;20.60;;;18.60;;
19675;SDS011;39539;52.202;9.876;2023-04-29T03:07:25;19.38;;;17.67;;
19675;SDS011;39539;52.202;9.876;2023-04-29T03:09:51;20.23;;;18.20;;
19675;SDS011;39539;52.202;9.876;2023-04-29T03:12:17;18.67;;;17.00;;
19675;SDS011;39539;52.202;9.876;2023-04-29T03:14:44;18.60;;;16.92;;
19675;SDS011;39539;52.202;9.876;2023-04-29T03:17:10;15.00;;;13.70;;
19675;SDS011;39539;52.202;9.876;2023-04-29T03:19:36;14.45;;;13.25;;
19675;SDS011;39539;52.202;9.876;2023-04-29T03:22:01;13.32;;;12.23;;
19675;SDS011;39539;52.202;9.876;2023-04-29T03:24:26;14.63;;;13.45;;
19675;SDS011;39539;52.202;9.876;2023-04-29T03:26:52;17.20;;;15.75;;
19675;SDS011;39539;52.202;9.876;2023-04-29T03:29:17;19.63;;;17.95;;
19675;SDS011;39539;52.202;9.876;2023-04-29T03:31:42;21.90;;;19.88;;
19675;SDS011;39539;52.202;9.876;2023-04-29T03:34:08;22.77;;;20.58;;
19675;SDS011;39539;52.202;9.876;2023-04-29T03:36:34;25.17;;;22.65;;
19675;SDS011;39539;52.202;9.876;2023-04-29T03:38:59;25.52;;;22.85;;
19675;SDS011;39539;52.202;9.876;2023-04-29T03:41:25;26.33;;;24.02;;
19675;SDS011;39539;52.202;9.876;2023-04-29T03:43:50;28.52;;;25.77;;
19675;SDS011;39539;52.202;9.876;2023-04-29T03:46:15;29.55;;;26.55;;
19675;SDS011;39539;52.202;9.876;2023-04-29T03:48:41;31.02;;;27.83;;
19675;SDS011;39539;52.202;9.876;2023-04-29T03:51:06;30.52;;;27.52;;
19675;SDS011;39539;52.202;9.876;2023-04-29T03:53:33;31.30;;;28.40;;
19675;SDS011;39539;52.202;9.876;2023-04-29T03:55:59;30.20;;;27.35;;
19675;SDS011;39539;52.202;9.876;2023-04-29T03:58:24;29.73;;;27.00;;
19675;SDS011;39539;52.202;9.876;2023-04-29T04:00:50;29.02;;;26.52;;
19675;SDS011;39539;52.202;9.876;2023-04-29T04:03:15;28.05;;;25.75;;
19675;SDS011;39539;52.202;9.876;2023-04-29T04:05:40;28.38;;;26.05;;
19675;SDS011;39539;52.202;9.876;2023-04-29T04:08:06;31.55;;;28.92;;
19675;SDS011;39539;52.202;9.876;2023-04-29T04:10:31;30.65;;;28.08;;
19675;SDS011;39539;52.202;9.876;2023-04-29T04:12:56;31.80;;;29.15;;
19675;SDS011;39539;52.202;9.876;2023-04-29T04:15:22;32.97;;;30.08;;
19675;SDS011;39539;52.202;9.876;2023-04-29T04:17:47;33.67;;;30.85;;
19675;SDS011;39539;52.202;9.876;2023-04-29T04:20:13;34.15;;;31.15;;
19675;SDS011;39539;52.202;9.876;2023-04-29T04:22:38;34.28;;;31.30;;
19675;SDS011;39539;52.202;9.876;2023-04-29T04:25:04;34.65;;;31.67;;
19675;SDS011;39539;52.202;9.876;2023-04-29T04:27:29;35.70;;;32.58;;
19675;SDS011;39539;52.202;9.876;2023-04-29T04:29:55;37.90;;;34.50;;
19675;SDS011;39539;52.202;9.876;2023-04-29T04:32:21;35.72;;;32.53;;
19675;SDS011;39539;52.202;9.876;2023-04-29T04:34:47;34.88;;;31.92;;
19675;SDS011;39539;52.202;9.876;2023-04-29T04:37:13;36.15;;;33.00;;
19675;SDS011;39539;52.202;9.876;2023-04-29T04:39:38;35.47;;;32.22;;
19675;SDS011;39539;52.202;9.876;2023-04-29T04:42:04;37.17;;;33.67;;
19675;SDS011;39539;52.202;9.876;2023-04-29T04:44:29;36.17;;;32.88;;
19675;SDS011;39539;52.202;9.876;2023-04-29T04:46:55;37.38;;;33.90;;
19675;SDS011;39539;52.202;9.876;2023-04-29T04:49:22;38.38;;;34.88;;
19675;SDS011;39539;52.202;9.876;2023-04-29T04:51:49;39.53;;;35.60;;
19675;SDS011;39539;52.202;9.876;2023-04-29T04:54:15;40.08;;;36.15;;
19675;SDS011;39539;52.202;9.876;2023-04-29T04:56:41;41.38;;;37.25;;
19675;SDS011;39539;52.202;9.876;2023-04-29T04:59:06;42.15;;;37.92;;
19675;SDS011;39539;52.202;9.876;2023-04-29T05:01:32;43.17;;;38.67;;
19675;SDS011;39539;52.202;9.876;2023-04-29T05:03:58;43.25;;;38.90;;
19675;SDS011;39539;52.202;9.876;2023-04-29T05:06:24;45.60;;;40.53;;
19675;SDS011;39539;52.202;9.876;2023-04-29T05:08:49;45.42;;;40.53;;
19675;SDS011;39539;52.202;9.876;2023-04-29T05:11:18;46.10;;;41.25;;
19675;SDS011;39539;52.202;9.876;2023-04-29T05:13:45;44.25;;;38.63;;
19675;SDS011;39539;52.202;9.876;2023-04-29T05:16:11;43.17;;;38.60;;
19675;SDS011;39539;52.202;9.876;2023-04-29T05:18:36;44.60;;;39.30;;
19675;SDS011;39539;52.202;9.876;2023-04-29T05:21:02;48.53;;;41.65;;
19675;SDS011;39539;52.202;9.876;2023-04-29T05:23:27;49.35;;;42.92;;
19675;SDS011;39539;52.202;9.876;2023-04-29T05:25:53;48.83;;;42.22;;
19675;SDS011;39539;52.202;9.876;2023-04-29T05:28:18;48.92;;;41.90;;
19675;SDS011;39539;52.202;9.876;2023-04-29T05:30:43;49.97;;;42.08;;
19675;SDS011;39539;52.202;9.876;2023-04-29T05:33:09;49.45;;;42.58;;
19675;SDS011;39539;52.202;9.876;2023-04-29T05:35:35;51.60;;;43.75;;
19675;SDS011;39539;52.202;9.876;2023-04-29T05:38:01;53.47;;;45.47;;
19675;SDS011;39539;52.202;9.876;2023-04-29T05:40:26;56.50;;;46.00;;
19675;SDS011;39539;52.202;9.876;2023-04-29T05:42:52;51.90;;;45.67;;
19675;SDS011;39539;52.202;9.876;2023-04-29T05:45:17;61.70;;;49.35;;
19675;SDS011;39539;52.202;9.876;2023-04-29T05:47:42;66.80;;;50.65;;
19675;SDS011;39539;52.202;9.876;2023-04-29T05:50:08;68.25;;;51.08;;
19675;SDS011;39539;52.202;9.876;2023-04-29T05:52:33;63.42;;;51.33;;
19675;SDS011;39539;52.202;9.876;2023-04-29T05:54:59;57.67;;;48.65;;
19675;SDS011;39539;52.202;9.876;2023-04-29T05:57:24;62.10;;;49.88;;
19675;SDS011;39539;52.202;9.876;2023-04-29T05:59:49;57.92;;;47.33;;
19675;SDS011;39539;52.202;9.876;2023-04-29T06:02:15;56.40;;;48.15;;
19675;SDS011;39539;52.202;9.876;2023-04-29T06:04:40;54.13;;;46.75;;
19675;SDS011;39539;52.202;9.876;2023-04-29T06:07:06;54.55;;;47.83;;
19675;SDS011;39539;52.202;9.876;2023-04-29T06:09:34;63.20;;;50.83;;
19675;SDS011;39539;52.202;9.876;2023-04-29T06:12:00;61.05;;;51.22;;
19675;SDS011;39539;52.202;9.876;2023-04-29T06:14:25;58.10;;;50.28;;
19675;SDS011;39539;52.202;9.876;2023-04-29T06:16:50;54.25;;;47.78;;
19675;SDS011;39539;52.202;9.876;2023-04-29T06:19:16;52.47;;;46.80;;
19675;SDS011;39539;52.202;9.876;2023-04-29T06:21:41;53.75;;;46.35;;
19675;SDS011;39539;52.202;9.876;2023-04-29T06:24:07;50.83;;;45.42;;
19675;SDS011;39539;52.202;9.876;2023-04-29T06:26:33;49.10;;;44.05;;
19675;SDS011;39539;52.202;9.876;2023-04-29T06:28:58;45.70;;;40.80;;
19675;SDS011;39539;52.202;9.876;2023-04-29T06:31:23;43.83;;;39.22;;
19675;SDS011;39539;52.202;9.876;2023-04-29T06:33:49;42.22;;;38.13;;
19675;SDS011;39539;52.202;9.876;2023-04-29T06:36:15;43.28;;;39.08;;
19675;SDS011;39539;52.202;9.876;2023-04-29T06:38:40;42.97;;;38.47;;
19675;SDS011;39539;52.202;9.876;2023-04-29T06:41:05;44.10;;;39.33;;
19675;SDS011;39539;52.202;9.876;2023-04-29T06:43:31;42.40;;;37.83;;
19675;SDS011;39539;52.202;9.876;2023-04-29T06:45:56;41.90;;;37.45;;
19675;SDS011;39539;52.202;9.876;2023-04-29T06:48:21;40.30;;;35.90;;
19675;SDS011;39539;52.202;9.876;2023-04-29T06:50:48;40.60;;;35.67;;
19675;SDS011;39539;52.202;9.876;2023-04-29T06:53:14;40.00;;;35.75;;
19675;SDS011;39539;52.202;9.876;2023-04-29T06:55:39;39.00;;;35.05;;
19675;SDS011;39539;52.202;9.876;2023-04-29T06:58:05;39.55;;;35.45;;
19675;SDS011;39539;52.202;9.876;2023-04-29T07:00:30;38.80;;;34.95;;
19675;SDS011;39539;52.202;9.876;2023-04-29T07:02:56;37.63;;;33.95;;
19675;SDS011;39539;52.202;9.876;2023-04-29T07:05:21;38.25;;;34.33;;
19675;SDS011;39539;52.202;9.876;2023-04-29T07:07:47;38.35;;;34.50;;
19675;SDS011;39539;52.202;9.876;2023-04-29T07:10:12;37.00;;;33.13;;
19675;SDS011;39539;52.202;9.876;2023-04-29T07:12:37;37.72;;;34.05;;
19675;SDS011;39539;52.202;9.876;2023-04-29T07:15:03;35.60;;;32.17;;
19675;SDS011;39539;52.202;9.876;2023-04-29T07:17:29;36.50;;;32.92;;
19675;SDS011;39539;52.202;9.876;2023-04-29T07:19:55;35.65;;;32.20;;
19675;SDS011;39539;52.202;9.876;2023-04-29T07:22:20;39.57;;;35.47;;
19675;SDS011;39539;52.202;9.876;2023-04-29T07:24:46;35.80;;;32.22;;
19675;SDS011;39539;52.202;9.876;2023-04-29T07:27:11;35.33;;;31.80;;
19675;SDS011;39539;52.202;9.876;2023-04-29T07:29:37;35.85;;;32.22;;
19675;SDS011;39539;52.202;9.876;2023-04-29T07:32:04;34.83;;;31.77;;
19675;SDS011;39539;52.202;9.876;2023-04-29T07:34:29;35.28;;;31.67;;
19675;SDS011;39539;52.202;9.876;2023-04-29T07:36:54;35.25;;;31.95;;
19675;SDS011;39539;52.202;9.876;2023-04-29T07:39:21;34.15;;;30.83;;
19675;SDS011;39539;52.202;9.876;2023-04-29T07:41:46;33.17;;;29.90;;
19675;SDS011;39539;52.202;9.876;2023-04-29T07:44:11;33.55;;;30.55;;
19675;SDS011;39539;52.202;9.876;2023-04-29T07:46:37;31.17;;;28.27;;
19675;SDS011;39539;52.202;9.876;2023-04-29T07:49:02;29.40;;;27.00;;
19675;SDS011;39539;52.202;9.876;2023-04-29T07:51:27;28.58;;;26.10;;
19675;SDS011;39539;52.202;9.876;2023-04-29T07:53:53;26.85;;;24.80;;
19675;SDS011;39539;52.202;9.876;2023-04-29T07:56:19;26.92;;;24.67;;
19675;SDS011;39539;52.202;9.876;2023-04-29T07:58:44;25.77;;;23.75;;
19675;SDS011;39539;52.202;9.876;2023-04-29T08:01:11;24.85;;;23.00;;
19675;SDS011;39539;52.202;9.876;2023-04-29T08:03:37;23.63;;;21.92;;
19675;SDS011;39539;52.202;9.876;2023-04-29T08:06:03;23.70;;;21.70;;
19675;SDS011;39539;52.202;9.876;2023-04-29T08:08:31;21.48;;;19.60;;
19675;SDS011;39539;52.202;9.876;2023-04-29T08:10:57;22.10;;;20.42;;
19675;SDS011;39539;52.202;9.876;2023-04-29T08:13:22;19.67;;;18.27;;
19675;SDS011;39539;52.202;9.876;2023-04-29T08:15:48;20.08;;;18.48;;
19675;SDS011;39539;52.202;9.876;2023-04-29T08:18:14;18.58;;;17.17;;
19675;SDS011;39539;52.202;9.876;2023-04-29T08:20:40;20.67;;;19.20;;
19675;SDS011;39539;52.202;9.876;2023-04-29T08:23:07;17.90;;;16.60;;
19675;SDS011;39539;52.202;9.876;2023-04-29T08:25:32;15.48;;;14.48;;
19675;SDS011;39539;52.202;9.876;2023-04-29T08:27:58;15.20;;;14.07;;
19675;SDS011;39539;52.202;9.876;2023-04-29T08:30:23;14.30;;;13.20;;
19675;SDS011;39539;52.202;9.876;2023-04-29T08:32:48;13.98;;;13.00;;
19675;SDS011;39539;52.202;9.876;2023-04-29T08:35:14;14.85;;;13.82;;
19675;SDS011;39539;52.202;9.876;2023-04-29T08:37:40;14.18;;;13.23;;
19675;SDS011;39539;52.202;9.876;2023-04-29T08:40:07;13.77;;;12.88;;
19675;SDS011;39539;52.202;9.876;2023-04-29T08:42:33;13.50;;;12.50;;
19675;SDS011;39539;52.202;9.876;2023-04-29T08:45:01;13.02;;;12.07;;
19675;SDS011;39539;52.202;9.876;2023-04-29T08:47:30;12.45;;;11.65;;
19675;SDS011;39539;52.202;9.876;2023-04-29T08:50:03;11.68;;;10.88;;
19675;SDS011;39539;52.202;9.876;2023-04-29T08:52:35;11.65;;;10.65;;
19675;SDS011;39539;52.202;9.876;2023-04-29T08:55:01;12.90;;;11.90;;
19675;SDS011;39539;52.202;9.876;2023-04-29T08:57:28;10.73;;;9.93;;
19675;SDS011;39539;52.202;9.876;2023-04-29T08:59:55;10.38;;;9.68;;
19675;SDS011;39539;52.202;9.876;2023-04-29T09:02:20;10.65;;;9.82;;
19675;SDS011;39539;52.202;9.876;2023-04-29T09:04:58;11.57;;;10.68;;
19675;SDS011;39539;52.202;9.876;2023-04-29T09:07:30;10.75;;;10.00;;
19675;SDS011;39539;52.202;9.876;2023-04-29T09:09:56;12.02;;;11.13;;
19675;SDS011;39539;52.202;9.876;2023-04-29T09:12:24;11.57;;;10.57;;
19675;SDS011;39539;52.202;9.876;2023-04-29T09:14:50;11.07;;;10.05;;
19675;SDS011;39539;52.202;9.876;2023-04-29T09:17:15;10.90;;;10.00;;
19675;SDS011;39539;52.202;9.876;2023-04-29T09:19:42;11.60;;;10.77;;
19675;SDS011;39539;52.202;9.876;2023-04-29T09:22:08;10.73;;;9.93;;
19675;SDS011;39539;52.202;9.876;2023-04-29T09:24:35;10.93;;;10.20;;
19675;SDS011;39539;52.202;9.876;2023-04-29T09:27:02;11.50;;;10.60;;
19675;SDS011;39539;52.202;9.876;2023-04-29T09:29:29;11.27;;;10.48;;
19675;SDS011;39539;52.202;9.876;2023-04-29T09:31:57;11.68;;;10.82;;
19675;SDS011;39539;52.202;9.876;2023-04-29T09:34:32;11.30;;;10.60;;
19675;SDS011;39539;52.202;9.876;2023-04-29T09:37:07;10.50;;;9.70;;
19675;SDS011;39539;52.202;9.876;2023-04-29T09:39:48;11.05;;;10.15;;
19675;SDS011;39539;52.202;9.876;2023-04-29T09:42:14;10.75;;;10.00;;
19675;SDS011;39539;52.202;9.876;2023-04-29T09:44:40;10.52;;;9.73;;
19675;SDS011;39539;52.202;9.876;2023-04-29T09:47:07;11.02;;;10.25;;
19675;SDS011;39539;52.202;9.876;2023-04-29T09:52:05;10.50;;;9.80;;
19675;SDS011;39539;52.202;9.876;2023-04-29T09:54:32;10.63;;;9.82;;
19675;SDS011;39539;52.202;9.876;2023-04-29T09:57:00;9.85;;;9.05;;
19675;SDS011;39539;52.202;9.876;2023-04-29T09:59:30;9.70;;;8.80;;
19675;SDS011;39539;52.202;9.876;2023-04-29T10:01:58;9.85;;;9.10;;
19675;SDS011;39539;52.202;9.876;2023-04-29T10:04:25;9.73;;;8.85;;
19675;SDS011;39539;52.202;9.876;2023-04-29T10:06:52;10.30;;;9.57;;
19675;SDS011;39539;52.202;9.876;2023-04-29T10:09:20;10.43;;;9.68;;
19675;SDS011;39539;52.202;9.876;2023-04-29T10:11:49;10.02;;;9.30;;
19675;SDS011;39539;52.202;9.876;2023-04-29T10:14:16;11.35;;;10.35;;
19675;SDS011;39539;52.202;9.876;2023-04-29T10:19:18;9.93;;;9.07;;
19675;SDS011;39539;52.202;9.876;2023-04-29T10:21:50;10.50;;;9.70;;
19675;SDS011;39539;52.202;9.876;2023-04-29T10:24:19;10.73;;;9.82;;
19675;SDS011;39539;52.202;9.876;2023-04-29T10:26:46;11.07;;;10.18;;
19675;SDS011;39539;52.202;9.876;2023-04-29T10:29:16;10.80;;;10.10;;
19675;SDS011;39539;52.202;9.876;2023-04-29T10:31:42;11.77;;;10.77;;
19675;SDS011;39539;52.202;9.876;2023-04-29T10:34:08;11.70;;;10.77;;
19675;SDS011;39539;52.202;9.876;2023-04-29T10:36:35;10.93;;;10.13;;
19675;SDS011;39539;52.202;9.876;2023-04-29T10:39:02;11.75;;;10.75;;
19675;SDS011;39539;52.202;9.876;2023-04-29T10:41:36;11.52;;;10.63;;
19675;SDS011;39539;52.202;9.876;2023-04-29T10:44:11;10.88;;;9.98;;
19675;SDS011;39539;52.202;9.876;2023-04-29T10:46:37;11.30;;;10.38;;
19675;SDS011;39539;52.202;9.876;2023-04-29T10:49:03;11.50;;;10.40;;
19675;SDS011;39539;52.202;9.876;2023-04-29T10:51:31;11.45;;;10.52;;
19675;SDS011;39539;52.202;9.876;2023-04-29T10:54:02;11.68;;;10.77;;
19675;SDS011;39539;52.202;9.876;2023-04-29T10:56:43;11.00;;;10.27;;
19675;SDS011;39539;52.202;9.876;2023-04-29T10:59:14;10.95;;;10.13;;
19675;SDS011;39539;52.202;9.876;2023-04-29T11:01:51;12.68;;;11.68;;
19675;SDS011;39539;52.202;9.876;2023-04-29T11:04:20;11.57;;;10.73;;
19675;SDS011;39539;52.202;9.876;2023-04-29T11:06:56;11.75;;;10.90;;
19675;SDS011;39539;52.202;9.876;2023-04-29T11:09:27;12.48;;;11.55;;
19675;SDS011;39539;52.202;9.876;2023-04-29T11:14:25;12.30;;;11.40;;
19675;SDS011;39539;52.202;9.876;2023-04-29T11:16:56;12.63;;;11.73;;
19675;SDS011;39539;52.202;9.876;2023-04-29T11:19:24;11.82;;;10.90;;
19675;SDS011;39539;52.202;9.876;2023-04-29T11:22:08;12.93;;;11.98;;
19675;SDS011;39539;52.202;9.876;2023-04-29T11:25:01;12.77;;;11.88;;
19675;SDS011;39539;52.202;9.876;2023-04-29T11:27:33;12.35;;;11.35;;
19675;SDS011;39539;52.202;9.876;2023-04-29T11:30:00;12.52;;;11.63;;
19675;SDS011;39539;52.202;9.876;2023-04-29T11:32:30;11.60;;;10.70;;
19675;SDS011;39539;52.202;9.876;2023-04-29T11:37:36;10.80;;;10.00;;
19675;SDS011;39539;52.202;9.876;2023-04-29T11:40:02;10.55;;;9.57;;
19675;SDS011;39539;52.202;9.876;2023-04-29T11:42:29;10.10;;;9.40;;
19675;SDS011;39539;52.202;9.876;2023-04-29T11:45:01;11.35;;;10.38;;
19675;SDS011;39539;52.202;9.876;2023-04-29T11:47:28;11.50;;;10.70;;
19675;SDS011;39539;52.202;9.876;2023-04-29T11:50:07;12.32;;;11.43;;
19675;SDS011;39539;52.202;9.876;2023-04-29T11:52:35;11.30;;;10.40;;
19675;SDS011;39539;52.202;9.876;2023-04-29T11:55:05;10.98;;;10.10;;
19675;SDS011;39539;52.202;9.876;2023-04-29T11:57:33;9.52;;;8.93;;
19675;SDS011;39539;52.202;9.876;2023-04-29T11:59:58;9.88;;;9.07;;
19675;SDS011;39539;52.202;9.876;2023-04-29T12:02:29;9.60;;;8.85;;
19675;SDS011;39539;52.202;9.876;2023-04-29T12:04:55;9.30;;;8.35;;
19675;SDS011;39539;52.202;9.876;2023-04-29T12:07:30;9.25;;;8.63;;
19675;SDS011;39539;52.202;9.876;2023-04-29T12:09:55;8.88;;;8.18;;
19675;SDS011;39539;52.202;9.876;2023-04-29T12:12:24;8.80;;;8.10;;
19675;SDS011;39539;52.202;9.876;2023-04-29T12:14:51;7.80;;;7.28;;
19675;SDS011;39539;52.202;9.876;2023-04-29T12:17:17;9.15;;;8.45;;
19675;SDS011;39539;52.202;9.876;2023-04-29T12:19:43;9.05;;;8.35;;
19675;SDS011;39539;52.202;9.876;2023-04-29T12:22:09;9.10;;;8.40;;
19675;SDS011;39539;52.202;9.876;2023-04-29T12:24:36;8.85;;;8.18;;
19675;SDS011;39539;52.202;9.876;2023-04-29T12:27:02;8.73;;;8.13;;
19675;SDS011;39539;52.202;9.876;2023-04-29T12:29:30;9.23;;;8.45;;
19675;SDS011;39539;52.202;9.876;2023-04-29T12:31:56;8.23;;;7.63;;
19675;SDS011;39539;52.202;9.876;2023-04-29T12:34:25;8.32;;;7.75;;
19675;SDS011;39539;52.202;9.876;2023-04-29T12:36:54;8.52;;;7.90;;
19675;SDS011;39539;52.202;9.876;2023-04-29T12:39:22;8.75;;;7.95;;
19675;SDS011;39539;52.202;9.876;2023-04-29T12:41:47;9.00;;;8.30;;
19675;SDS011;39539;52.202;9.876;2023-04-29T12:44:12;8.70;;;8.00;;
19675;SDS011;39539;52.202;9.876;2023-04-29T12:46:39;7.60;;;7.10;;
19675;SDS011;39539;52.202;9.876;2023-04-29T12:49:05;8.55;;;7.95;;
19675;SDS011;39539;52.202;9.876;2023-04-29T12:51:32;8.57;;;7.93;;
19675;SDS011;39539;52.202;9.876;2023-04-29T12:54:00;8.60;;;7.90;;
19675;SDS011;39539;52.202;9.876;2023-04-29T12:56:26;8.75;;;8.05;;
19675;SDS011;39539;52.202;9.876;2023-04-29T12:58:51;7.97;;;7.38;;
19675;SDS011;39539;52.202;9.876;2023-04-29T13:01:18;7.60;;;7.00;;
19675;SDS011;39539;52.202;9.876;2023-04-29T13:03:43;8.52;;;7.93;;
19675;SDS011;39539;52.202;9.876;2023-04-29T13:06:09;8.73;;;8.13;;
19675;SDS011;39539;52.202;9.876;2023-04-29T13:08:34;8.57;;;7.97;;
19675;SDS011;39539;52.202;9.876;2023-04-29T13:10:59;8.75;;;8.05;;
19675;SDS011;39539;52.202;9.876;2023-04-29T13:13:25;8.77;;;8.18;;
19675;SDS011;39539;52.202;9.876;2023-04-29T13:15:51;8.82;;;8.13;;
19675;SDS011;39539;52.202;9.876;2023-04-29T13:18:17;7.65;;;7.10;;
19675;SDS011;39539;52.202;9.876;2023-04-29T13:20:42;8.00;;;7.32;;
19675;SDS011;39539;52.202;9.876;2023-04-29T13:23:08;7.82;;;7.07;;
19675;SDS011;39539;52.202;9.876;2023-04-29T13:25:34;7.63;;;7.03;;
19675;SDS011;39539;52.202;9.876;2023-04-29T13:28:01;6.53;;;6.07;;
19675;SDS011;39539;52.202;9.876;2023-04-29T13:30:26;8.27;;;7.57;;
19675;SDS011;39539;52.202;9.876;2023-04-29T13:32:52;8.93;;;8.32;;
19675;SDS011;39539;52.202;9.876;2023-04-29T13:35:17;8.80;;;8.20;;
19675;SDS011;39539;52.202;9.876;2023-04-29T13:37:43;9.25;;;8.55;;
19675;SDS011;39539;52.202;9.876;2023-04-29T13:40:08;8.60;;;7.90;;
19675;SDS011;39539;52.202;9.876;2023-04-29T13:42:34;7.47;;;6.90;;
19675;SDS011;39539;52.202;9.876;2023-04-29T13:45:01;8.07;;;7.43;;
19675;SDS011;39539;52.202;9.876;2023-04-29T13:47:27;6.88;;;6.38;;
19675;SDS011;39539;52.202;9.876;2023-04-29T13:49:53;6.68;;;6.07;;
19675;SDS011;39539;52.202;9.876;2023-04-29T13:52:18;6.75;;;6.25;;
19675;SDS011;39539;52.202;9.876;2023-04-29T13:54:44;6.93;;;6.43;;
19675;SDS011;39539;52.202;9.876;2023-04-29T13:57:09;7.63;;;7.03;;
19675;SDS011;39539;52.202;9.876;2023-04-29T13:59:35;7.90;;;7.20;;
19675;SDS011;39539;52.202;9.876;2023-04-29T14:02:00;8.60;;;7.90;;
19675;SDS011;39539;52.202;9.876;2023-04-29T14:04:26;7.10;;;6.57;;
19675;SDS011;39539;52.202;9.876;2023-04-29T14:06:53;6.55;;;6.05;;
19675;SDS011;39539;52.202;9.876;2023-04-29T14:09:19;6.85;;;6.35;;
19675;SDS011;39539;52.202;9.876;2023-04-29T14:11:45;7.20;;;6.10;;
19675;SDS011;39539;52.202;9.876;2023-04-29T14:14:11;6.85;;;6.15;;
19675;SDS011;39539;52.202;9.876;2023-04-29T14:16:37;7.53;;;6.82;;
19675;SDS011;39539;52.202;9.876;2023-04-29T14:19:02;6.15;;;5.65;;
19675;SDS011;39539;52.202;9.876;2023-04-29T14:21:28;6.53;;;6.03;;
19675;SDS011;39539;52.202;9.876;2023-04-29T14:23:54;6.10;;;5.60;;
19675;SDS011;39539;52.202;9.876;2023-04-29T14:26:19;6.45;;;5.95;;
19675;SDS011;39539;52.202;9.876;2023-04-29T14:28:45;6.03;;;5.63;;
19675;SDS011;39539;52.202;9.876;2023-04-29T14:31:10;6.40;;;5.80;;
19675;SDS011;39539;52.202;9.876;2023-04-29T14:33:37;6.55;;;5.95;;
19675;SDS011;39539;52.202;9.876;2023-04-29T14:36:03;6.00;;;5.60;;
19675;SDS011;39539;52.202;9.876;2023-04-29T14:38:29;6.78;;;6.20;;
19675;SDS011;39539;52.202;9.876;2023-04-29T14:40:54;6.57;;;5.97;;
19675;SDS011;39539;52.202;9.876;2023-04-29T14:43:19;6.60;;;6.05;;
19675;SDS011;39539;52.202;9.876;2023-04-29T14:45:45;6.97;;;6.38;;
19675;SDS011;39539;52.202;9.876;2023-04-29T14:48:10;7.00;;;6.30;;
19675;SDS011;39539;52.202;9.876;2023-04-29T14:50:36;7.25;;;6.65;;
19675;SDS011;39539;52.202;9.876;2023-04-29T14:53:01;7.88;;;7.18;;